Nearby METAR Reports

 

KMRB - Martinsburg, West Virginia, USA
Distance from station: NNW 9mi, 14km
Updated: 02/27/2024 7:53am
Clear
Clear
 Wind from calm
Wind: Calm
Temperature: 37°F , 3°C
Dew Point: 34°F , 1°C
Humidity: 87%
Barometer: 29.91 inHg , 1012.9 hPa
Clouds: Clear
Visibility: 9 miles , 14 km
2024/02/27 12:53 KMRB 271253Z 00000KT 9SM CLR 03/01 A2991 RMK AO2 SLP129 T00330011
KOKV - Winchester Rgnl, Virginia, USA
Distance from station: SW 17mi, 28km
Updated: 02/27/2024 7:55am
Clear
Clear
 Wind from calm
Wind: Calm
Temperature: 43°F , 6°C
Dew Point: 37°F , 3°C
Humidity: 81%
Barometer: 29.89 inHg , 1012.2 hPa
Clouds: Clear
Visibility: 10 miles , 16 km
2024/02/27 12:55 KOKV 271255Z AUTO 00000KT 10SM CLR 06/03 A2989 RMK AO2
 
KJYO - Leesburg/Godfrey, Virginia, USA
Distance from station: SE 23mi, 38km
Updated: 02/27/2024 7:55am
Clear
Clear
 Wind from calm
Wind: Calm
Temperature: 41°F , 5°C
Dew Point: 39°F , 4°C
Humidity: 93%
Barometer: 29.96 inHg , 1014.6 hPa
Clouds: Clear
Visibility: 10 miles , 16 km
2024/02/27 12:55 KJYO 271255Z AUTO 00000KT 10SM CLR 05/04 A2996 RMK AO2
KFDK - Frederick, Maryland, USA
Distance from station: ENE 30mi, 48km
Updated: 02/27/2024 7:47am
Clear
Clear
 Wind from calm
Wind: Calm
Temperature: 37°F , 3°C
Dew Point: 37°F , 3°C
Humidity: 100%
Barometer: 29.96 inHg , 1014.6 hPa
Clouds: Clear
Visibility: 7 miles , 11 km
2024/02/27 12:47 KFDK 271247Z 00000KT 7SM CLR 03/03 A2996
 
KHGR - Hagerstown, Maryland, USA
Distance from station: NNE 30mi, 48km
Updated: 02/27/2024 7:53am
Clear
Clear
 Wind from NNW
Wind: NNW 6 mph , 9 km/h
Temperature: 39°F , 4°C
Wind Chill: 35°F , 2°C
Dew Point: 34°F , 1°C
Humidity: 81%
Barometer: 29.91 inHg , 1012.9 hPa
Clouds: Clear
Visibility: 7 miles , 11 km
2024/02/27 12:53 KHGR 271253Z 33005KT 7SM CLR 04/01 A2991 RMK AO2 SLP142 T00390011 $
KIAD - Wash Dc/Dulles, Virginia, USA
Distance from station: SE 34mi, 55km
Updated: 02/27/2024 7:52am
Mostly cloudy
Mostly cloudy
 Wind from SSE
Wind: SSE 3 mph , 6 km/h
Temperature: 48°F , 9°C
Dew Point: 39°F , 4°C
Humidity: 71%
Barometer: 29.95 inHg , 1014.2 hPa
Clouds: Mostly cloudy
Visibility: 10 miles , 16 km
Cloud details: Few Clouds 15000 ft
Mostly cloudy 25000 ft
2024/02/27 12:52 KIAD 271252Z 16003KT 10SM FEW150 BKN250 09/04 A2995 RMK AO2 SLP141 T00890039 $
 
KRSP - Nsf Thurmont, Maryland, USA
Distance from station: NE 34mi, 55km
Updated: 02/27/2024 7:54am
Clear
Clear
 Wind from S
Wind: S 9 mph , 15 km/h
Temperature: 46°F , 8°C
Wind Chill: 41°F , 5°C
Dew Point: 37°F , 3°C
Humidity: 71%
Barometer: 29.91 inHg , 1012.9 hPa
Clouds: Clear
Visibility: 10 miles , 16 km
2024/02/27 12:54 KRSP 271254Z AUTO 17008KT 10SM CLR 08/03 A2991 RMK AO2 SLP135 T00830028 $
KGAI - Gaithersburg, Maryland, USA
Distance from station: E 40mi, 64km
Updated: 02/27/2024 7:56am
Clear
Clear
 Wind from SE
Wind: SE 5 mph , 7 km/h
Temperature: 46°F , 8°C
Wind Chill: 44°F , 7°C
Dew Point: 39°F , 4°C
Humidity: 76%
Barometer: 29.96 inHg , 1014.6 hPa
Clouds: Clear
Visibility: 10 miles , 16 km
2024/02/27 12:56 KGAI 271256Z AUTO 13004KT 10SM CLR 08/04 A2996 RMK AO2 SLP159 T00830044 PNO $
 
KRYT - Fountain Dale, Pennsylvania, USA
Distance from station: NE 40mi, 64km
Updated: 11/13/2017 7:53am
NOT Current
Mist, Overcast
Mist, Overcast
 Wind from calm
Wind: Calm
Temperature: 37°F , 3°C
Dew Point: 34°F , 1°C
Humidity: 87%
Barometer: 30.31 inHg , 1026.4 hPa
Summary: Mist
Clouds: Overcast
Visibility: 5 miles , 8 km
Cloud details: Overcast 700 ft
2017/11/13 12:53 KRYT 131253Z AUTO 00000KT 5SM BR OVC007 03/01 A3031 RMK AO2 SLP275 T00280011 TSNO $
KHEF - Manassas Muni, Virginia, USA
Distance from station: SSE 44mi, 72km
Updated: 02/27/2024 7:56am
Clear
Clear
 Wind from calm
Wind: Calm
Temperature: 43°F , 6°C
Dew Point: 39°F , 4°C
Humidity: 87%
Barometer: 29.96 inHg , 1014.6 hPa
Clouds: Clear
Visibility: 10 miles , 16 km
2024/02/27 12:56 KHEF 271256Z 00000KT 10SM CLR 06/04 A2996 RMK AO2 SLP150 T00560044
 
KHWY - Warrenton, Virginia, USA
Distance from station: SSE 50mi, 80km
Updated: 02/27/2024 7:55am
Clear
Clear
 Wind from SSW
Wind: SSW 3 mph , 6 km/h
Temperature: 52°F , 11°C
Dew Point: 36°F , 2°C
Humidity: 54%
Barometer: 29.95 inHg , 1014.2 hPa
Clouds: Clear
Visibility: 10 miles , 16 km
2024/02/27 12:55 KHWY 271255Z AUTO 21003KT 10SM CLR 11/02 A2995 RMK AO2 T01060024